Time;durP1;ratioP1;P1;durP2;ratioP2;P2;SDS_P1;SDS_P2;PMS_P1;PMS_P2;Temp;Humidity;BMP_temperature;BMP_pressure;BME280_temperature;BME280_humidity;BME280_pressure;Samples;Min_cycle;Max_cycle;Signal;HPM_P1;HPM_P2
2021/07/17 00:07:47;;;;;;;28.45;19.10;;;;;;;17.31;80.83;101025.91;20583537;28;20051;-73
2021/07/17 00:17:49;;;;;;;32.10;19.25;;;;;;;17.31;80.73;101017.94;20565431;28;20137;-73
2021/07/17 00:27:52;;;;;;;30.88;19.25;;;;;;;17.29;80.98;101022.41;20582315;28;20046;-73
2021/07/17 00:37:54;;;;;;;34.58;19.92;;;;;;;17.25;81.47;101006.69;20583706;28;20113;-73
2021/07/17 00:47:57;;;;;;;32.30;19.27;;;;;;;17.23;81.20;101011.19;20582189;28;20493;-73
2021/07/17 00:58:00;;;;;;;29.85;18.77;;;;;;;17.13;81.68;101006.19;20582061;28;20661;-70
2021/07/17 01:08:07;;;;;;;31.00;19.50;;;;;;;17.09;82.24;100993.97;20579992;28;20043;-73
2021/07/17 01:18:09;;;;;;;27.77;18.90;;;;;;;17.07;81.97;101001.13;20578175;28;20051;-73
2021/07/17 01:28:11;;;;;;;28.35;18.38;;;;;;;17.08;82.08;101008.13;20579032;28;20105;-73
2021/07/17 01:38:13;;;;;;;24.13;16.48;;;;;;;17.07;82.07;101001.13;20578578;28;20058;-74
2021/07/17 01:48:21;;;;;;;26.63;17.95;;;;;;;17.08;81.95;100989.59;20577907;28;20093;-72
2021/07/17 01:58:23;;;;;;;26.33;18.52;;;;;;;16.90;83.53;100976.97;20559930;28;20059;-72
2021/07/17 02:08:25;;;;;;;26.17;18.65;;;;;;;16.95;82.55;100982.97;20574870;28;20516;-71
2021/07/17 02:18:32;;;;;;;32.10;19.60;;;;;;;16.86;82.83;100983.28;20574392;28;20113;-71
2021/07/17 02:28:35;;;;;;;29.42;17.98;;;;;;;16.73;84.10;100982.81;20574949;28;20386;-71
2021/07/17 02:38:37;;;;;;;31.67;18.27;;;;;;;16.51;85.15;100969.38;20574250;28;20054;-71
2021/07/17 02:48:40;;;;;;;28.75;19.63;;;;;;;16.47;85.16;100977.44;20574970;28;20051;-71
2021/07/17 02:58:42;;;;;;;28.58;18.98;;;;;;;16.47;84.76;100978.31;20555856;28;20054;-71
2021/07/17 03:08:44;;;;;;;30.92;20.05;;;;;;;16.42;84.91;100988.16;20572769;28;20046;-70
2021/07/17 03:18:46;;;;;;;27.65;18.55;;;;;;;16.32;85.07;100981.41;20582162;28;20050;-70
2021/07/17 03:28:48;;;;;;;30.67;19.92;;;;;;;16.31;85.64;100987.63;20572693;28;20058;-71
2021/07/17 03:38:50;;;;;;;28.23;18.85;;;;;;;16.46;84.58;100987.16;20582137;28;20039;-71
2021/07/17 03:48:52;;;;;;;31.75;19.88;;;;;;;16.59;84.34;100987.66;20585649;28;20053;-72
2021/07/17 03:58:54;;;;;;;32.10;21.45;;;;;;;16.62;84.62;100998.09;20584092;28;20405;-71
2021/07/17 04:08:56;;;;;;;31.73;20.45;;;;;;;16.74;83.88;100996.91;20583310;28;20196;-73
2021/07/17 04:18:57;;;;;;;31.15;20.27;;;;;;;16.99;83.18;101003.13;20583688;28;20078;-71
2021/07/17 04:28:59;;;;;;;32.50;20.48;;;;;;;17.16;82.76;101011.41;20583634;28;20065;-71
2021/07/17 04:39:02;;;;;;;34.08;20.60;;;;;;;17.36;82.23;101018.66;20582280;28;20089;-72
2021/07/17 04:49:04;;;;;;;26.65;19.00;;;;;;;17.66;81.16;101023.81;20580802;28;20055;-71
2021/07/17 04:59:06;;;;;;;34.15;20.38;;;;;;;17.86;80.75;101023.13;20579704;28;20046;-71
2021/07/17 05:09:08;;;;;;;29.58;19.95;;;;;;;18.01;80.25;101027.00;20579410;28;20097;-71
2021/07/17 05:19:10;;;;;;;30.38;19.65;;;;;;;18.22;79.51;101022.72;20577954;28;20517;-71
2021/07/17 05:29:11;;;;;;;29.73;19.92;;;;;;;18.30;78.68;101018.88;20577617;28;20046;-72
2021/07/17 05:39:13;;;;;;;29.05;18.40;;;;;;;18.18;79.11;101012.22;20575867;28;20105;-72
2021/07/17 05:49:15;;;;;;;28.60;18.73;;;;;;;18.42;78.46;101028.13;20575559;28;20051;-71
2021/07/17 05:59:17;;;;;;;27.90;17.40;;;;;;;18.57;78.08;101016.91;20575344;28;20461;-70
2021/07/17 06:09:18;;;;;;;28.83;19.13;;;;;;;18.49;78.24;101019.00;20575681;28;20069;-71
2021/07/17 06:19:20;;;;;;;25.98;17.13;;;;;;;18.81;77.12;101008.97;20574518;28;20091;-71
2021/07/17 06:29:22;;;;;;;31.65;17.42;;;;;;;18.80;76.78;101024.00;20574308;28;20046;-71
2021/07/17 06:39:24;;;;;;;26.98;17.58;;;;;;;19.00;76.44;101025.88;20573351;28;20188;-71
2021/07/17 06:49:26;;;;;;;26.83;16.48;;;;;;;19.09;76.18;101037.91;20575427;28;20547;-71
2021/07/17 06:59:28;;;;;;;27.70;16.58;;;;;;;19.05;76.04;101045.13;20572988;28;20117;-70
2021/07/17 07:09:29;;;;;;;22.80;15.25;;;;;;;19.43;75.19;101053.28;20638861;28;20046;-71
2021/07/17 07:19:31;;;;;;;21.42;14.80;;;;;;;19.35;75.66;101058.06;20668931;28;20511;-71
2021/07/17 07:29:33;;;;;;;23.98;14.85;;;;;;;19.64;74.08;101065.72;20668086;28;20520;-71
2021/07/17 07:39:35;;;;;;;22.15;14.32;;;;;;;19.76;74.44;101058.13;20665871;28;20050;-71
2021/07/17 07:49:38;;;;;;;20.70;14.02;;;;;;;20.15;72.15;101061.69;20669058;28;20481;-72
2021/07/17 07:59:40;;;;;;;22.98;14.25;;;;;;;20.34;71.54;101058.19;20667655;28;20420;-72
2021/07/17 08:09:42;;;;;;;22.65;13.77;;;;;;;20.53;71.07;101056.44;20668777;28;20050;-73
2021/07/17 08:19:44;;;;;;;20.27;13.38;;;;;;;20.31;71.46;101050.34;20666819;28;20050;-72
2021/07/17 08:29:45;;;;;;;20.95;13.45;;;;;;;20.44;71.16;101046.19;20669495;28;20153;-71
2021/07/17 08:39:47;;;;;;;21.05;12.50;;;;;;;20.54;70.91;101052.84;20663733;28;20047;-71
2021/07/17 08:49:50;;;;;;;22.27;12.38;;;;;;;20.40;71.28;101056.09;20646072;28;20113;-72
2021/07/17 08:59:53;;;;;;;21.17;12.85;;;;;;;20.59;70.16;101055.28;20661543;28;20075;-72
2021/07/17 09:09:55;;;;;;;20.43;11.03;;;;;;;20.43;70.93;101055.13;20659257;28;20085;-71
2021/07/17 09:19:59;;;;;;;17.73;11.00;;;;;;;20.87;68.24;101060.16;20659796;28;20105;-71
2021/07/17 09:30:02;;;;;;;20.27;11.75;;;;;;;20.77;69.17;101050.91;20659730;28;20484;-71
2021/07/17 09:40:08;;;;;;;15.98;10.35;;;;;;;20.84;69.26;101060.31;20640608;28;20515;-71
2021/07/17 09:50:19;;;;;;;17.92;11.10;;;;;;;20.49;70.23;101057.50;20624542;28;20405;-71
2021/07/17 10:00:23;;;;;;;19.38;11.13;;;;;;;20.64;69.92;101042.63;20558520;28;20078;-72
2021/07/17 10:10:28;;;;;;;16.75;10.05;;;;;;;20.87;69.06;101038.88;20580863;28;20046;-72
2021/07/17 10:20:29;;;;;;;21.43;11.07;;;;;;;21.04;68.16;101030.09;20655694;28;20528;-71
2021/07/17 10:30:31;;;;;;;18.40;9.88;;;;;;;22.12;65.39;101021.84;20654903;28;20050;-71
2021/07/17 10:40:34;;;;;;;21.15;9.85;;;;;;;21.80;64.71;101020.00;20657235;28;20054;-70
2021/07/17 10:50:36;;;;;;;18.38;10.20;;;;;;;21.77;65.78;101011.22;20672428;28;20054;-71
2021/07/17 11:00:41;;;;;;;16.75;9.65;;;;;;;22.02;63.73;101004.59;20670405;28;20492;-72
2021/07/17 11:10:43;;;;;;;16.25;9.18;;;;;;;21.88;65.00;101007.13;20654088;28;20469;-72
2021/07/17 11:20:45;;;;;;;17.40;9.48;;;;;;;22.49;62.37;100999.34;20670446;28;20046;-72
2021/07/17 11:30:47;;;;;;;11.75;8.73;;;;;;;23.27;61.59;100988.69;20668603;28;20396;-72
2021/07/17 11:40:49;;;;;;;16.52;8.75;;;;;;;23.47;60.59;100987.50;20668864;28;20081;-72
2021/07/17 11:51:00;;;;;;;12.65;8.40;;;;;;;22.81;61.73;100993.16;20668230;28;20525;-74
2021/07/17 12:01:04;;;;;;;12.20;8.15;;;;;;;23.29;60.13;100981.47;20666312;28;20054;-74
2021/07/17 12:11:15;;;;;;;12.97;8.37;;;;;;;23.74;59.23;100974.31;20649726;28;20051;-75
2021/07/17 12:21:16;;;;;;;12.73;8.52;;;;;;;23.47;59.44;100955.41;20667150;28;20046;-75
2021/07/17 12:31:19;;;;;;;14.55;9.02;;;;;;;23.89;58.62;100943.94;20663862;28;20192;-74
2021/07/17 12:41:23;;;;;;;13.48;8.23;;;;;;;24.05;58.51;100944.69;20663643;28;20050;-75
2021/07/17 12:51:28;;;;;;;15.18;8.55;;;;;;;23.71;59.88;100948.59;20662060;28;20050;-74
2021/07/17 13:01:30;;;;;;;11.63;8.00;;;;;;;23.99;59.20;100946.88;20644491;28;20061;-74
2021/07/17 13:11:32;;;;;;;14.95;8.35;;;;;;;24.41;57.98;100939.78;20660329;28;20055;-74
2021/07/17 13:21:41;;;;;;;12.63;8.55;;;;;;;24.04;59.01;100944.78;20661674;28;20421;-75
2021/07/17 13:31:50;;;;;;;15.45;9.80;;;;;;;23.91;60.09;100935.81;20658489;28;20058;-75
2021/07/17 13:42:09;;;;;;;14.38;9.13;;;;;;;24.08;60.33;100946.31;20642831;28;20069;-74
2021/07/17 13:52:31;;;;;;;13.90;8.05;;;;;;;24.13;60.08;100932.63;20641924;28;20315;-74
2021/07/17 14:02:33;;;;;;;13.38;8.98;;;;;;;24.44;58.46;100919.03;20658985;28;20050;-74
2021/07/17 14:12:36;;;;;;;13.07;9.13;;;;;;;24.49;57.71;100908.03;20659914;28;20493;-73
2021/07/17 14:22:38;;;;;;;14.05;9.45;;;;;;;25.23;55.97;100896.75;20658871;28;20046;-74
2021/07/17 14:32:40;;;;;;;15.68;9.35;;;;;;;25.04;58.15;100885.56;20654848;28;20047;-74
2021/07/17 14:42:42;;;;;;;15.27;9.38;;;;;;;25.48;57.49;100866.41;20654889;28;20452;-75
2021/07/17 14:52:44;;;;;;;17.17;9.45;;;;;;;25.70;56.31;100857.72;20653508;28;20130;-74
2021/07/17 15:02:45;;;;;;;23.02;11.27;;;;;;;26.06;54.35;100846.19;20653685;28;20054;-74
2021/07/17 15:12:48;;;;;;;19.67;10.85;;;;;;;25.74;54.95;100853.84;20654204;28;20121;-74
2021/07/17 15:22:49;;;;;;;17.08;10.93;;;;;;;25.53;56.64;100850.00;20655162;28;20050;-75
2021/07/17 15:32:51;;;;;;;15.23;10.65;;;;;;;25.22;57.35;100849.50;20660871;28;20062;-75
2021/07/17 15:42:54;;;;;;;17.30;11.60;;;;;;;24.97;60.42;100844.94;20667366;28;20085;-75
2021/07/17 15:52:56;;;;;;;18.10;12.43;;;;;;;24.87;60.39;100832.28;20666931;28;20094;-75
2021/07/17 16:02:59;;;;;;;16.25;11.20;;;;;;;25.08;60.17;100829.00;20665624;28;20553;-75
2021/07/17 16:13:02;;;;;;;18.30;12.00;;;;;;;25.25;58.75;100824.31;20648289;28;20042;-76
2021/07/17 16:23:05;;;;;;;16.00;12.10;;;;;;;25.17;59.82;100811.44;20646318;28;20050;-75
2021/07/17 16:33:07;;;;;;;16.63;12.27;;;;;;;25.26;60.15;100807.25;20662630;28;20054;-76
2021/07/17 16:43:09;;;;;;;18.63;11.85;;;;;;;25.29;60.19;100797.16;20662585;28;20050;-75
2021/07/17 16:53:11;;;;;;;20.80;12.00;;;;;;;25.17;60.10;100794.50;20662970;28;20050;-75
2021/07/17 17:03:15;;;;;;;15.90;11.80;;;;;;;25.18;61.57;100805.09;20662956;28;20451;-74
2021/07/17 17:13:20;;;;;;;19.30;11.88;;;;;;;25.47;59.71;100794.13;20662503;28;20412;-74
2021/07/17 17:23:23;;;;;;;17.30;11.73;;;;;;;25.88;58.42;100798.38;20645414;28;20392;-74
2021/07/17 17:33:25;;;;;;;19.33;12.83;;;;;;;25.75;59.58;100803.72;20660496;28;20054;-75
2021/07/17 17:43:26;;;;;;;17.58;11.93;;;;;;;25.57;59.93;100801.41;20660776;28;20053;-75
2021/07/17 17:53:28;;;;;;;17.98;12.70;;;;;;;25.39;60.28;100815.25;20641075;28;20190;-75
2021/07/17 18:03:30;;;;;;;17.70;12.25;;;;;;;25.35;60.48;100809.28;20657426;28;20104;-75
2021/07/17 18:13:32;;;;;;;18.27;13.20;;;;;;;25.32;60.88;100810.34;20657407;28;20508;-75
2021/07/17 18:23:36;;;;;;;22.70;14.07;;;;;;;25.20;61.03;100823.75;20658527;28;20114;-75
2021/07/17 18:33:37;;;;;;;22.40;15.48;;;;;;;24.89;62.64;100825.00;20655107;28;20166;-75
2021/07/17 18:43:41;;;;;;;21.52;14.77;;;;;;;24.70;62.79;100831.59;20654378;28;20105;-75
2021/07/17 18:53:43;;;;;;;23.73;14.85;;;;;;;24.51;63.87;100841.84;20655784;28;20420;-73
2021/07/17 19:03:45;;;;;;;21.40;14.75;;;;;;;24.04;64.85;100846.66;20658607;28;20054;-73
2021/07/17 19:13:47;;;;;;;20.55;15.93;;;;;;;23.90;65.63;100852.03;20671959;28;20101;-73
2021/07/17 19:23:49;;;;;;;21.98;16.15;;;;;;;23.45;67.99;100861.13;20654527;28;20125;-73
2021/07/17 19:33:51;;;;;;;21.67;16.17;;;;;;;23.28;68.20;100865.69;20669919;28;20058;-73
2021/07/17 19:43:56;;;;;;;25.40;16.73;;;;;;;23.16;68.72;100869.09;20669604;28;20101;-73
2021/07/17 19:53:59;;;;;;;23.50;16.02;;;;;;;22.84;69.47;100871.00;20668398;28;20058;-73
2021/07/17 20:04:01;;;;;;;21.63;16.17;;;;;;;22.62;70.25;100887.44;20667468;28;20038;-74
2021/07/17 20:14:03;;;;;;;22.95;15.25;;;;;;;22.28;71.04;100891.19;20667682;28;20051;-73
2021/07/17 20:24:05;;;;;;;23.23;15.55;;;;;;;22.14;71.63;100891.97;20649571;28;20484;-73
2021/07/17 20:34:07;;;;;;;18.95;14.30;;;;;;;22.06;70.65;100894.16;20647491;28;20101;-73
2021/07/17 20:44:09;;;;;;;19.60;14.55;;;;;;;21.90;71.15;100898.63;20664702;28;20054;-73
2021/07/17 20:54:11;;;;;;;21.23;13.75;;;;;;;21.74;72.12;100893.25;20663996;28;20054;-73
2021/07/17 21:04:13;;;;;;;23.80;14.15;;;;;;;21.43;73.17;100894.03;20662552;28;20081;-73
2021/07/17 21:14:14;;;;;;;19.58;12.70;;;;;;;21.32;73.07;100897.28;20660588;28;20051;-73
2021/07/17 21:24:16;;;;;;;19.10;13.48;;;;;;;21.29;73.13;100888.56;20643795;28;20108;-74
2021/07/17 21:34:18;;;;;;;18.90;12.30;;;;;;;21.17;73.35;100896.22;20658538;28;20097;-74
2021/07/17 21:44:20;;;;;;;20.95;13.55;;;;;;;20.97;74.27;100893.72;20658696;28;20100;-73
2021/07/17 21:54:22;;;;;;;16.75;12.70;;;;;;;20.84;74.86;100889.97;20656294;28;20104;-73
2021/07/17 22:04:24;;;;;;;18.25;13.32;;;;;;;20.64;75.98;100894.47;20657021;28;20104;-74
2021/07/17 22:14:26;;;;;;;21.15;14.35;;;;;;;20.40;77.99;100893.00;20654178;28;20050;-73
2021/07/17 22:24:28;;;;;;;20.83;15.10;;;;;;;20.17;79.09;100894.97;20654736;28;20094;-73
2021/07/17 22:34:30;;;;;;;19.77;14.68;;;;;;;19.86;79.96;100900.00;20652127;28;20105;-72
2021/07/17 22:44:32;;;;;;;21.80;15.20;;;;;;;19.61;80.69;100887.84;20654061;28;20104;-72
2021/07/17 22:54:34;;;;;;;21.35;14.93;;;;;;;19.38;81.79;100880.88;20653678;28;20542;-72
2021/07/17 23:04:36;;;;;;;21.30;15.00;;;;;;;19.22;81.70;100883.34;20653580;28;20513;-72
2021/07/17 23:14:38;;;;;;;24.02;15.27;;;;;;;19.17;81.02;100888.00;20653471;28;20105;-72
2021/07/17 23:24:39;;;;;;;21.25;13.23;;;;;;;19.17;80.38;100893.31;20636681;28;20039;-72
2021/07/17 23:34:41;;;;;;;18.55;12.38;;;;;;;19.15;79.73;100894.28;20652644;28;20046;-72
2021/07/17 23:44:43;;;;;;;17.17;11.68;;;;;;;19.11;79.57;100898.00;20653472;28;20050;-72
2021/07/17 23:54:45;;;;;;;15.55;10.43;;;;;;;18.95;79.43;100896.00;20660726;28;20551;-72
